sensor_id;sensor_type;location;lat;lon;timestamp;P1;durP1;ratioP1;P2;durP2;ratioP2
37937;SDS011;23763;48.130;11.602;2022-07-23T00:00:15;12.15;;;11.35;;
37937;SDS011;23763;48.130;11.602;2022-07-23T00:02:47;11.95;;;11.20;;
37937;SDS011;23763;48.130;11.602;2022-07-23T00:05:13;11.80;;;10.88;;
37937;SDS011;23763;48.130;11.602;2022-07-23T00:07:39;11.90;;;11.02;;
37937;SDS011;23763;48.130;11.602;2022-07-23T00:10:05;12.38;;;11.48;;
37937;SDS011;23763;48.130;11.602;2022-07-23T00:12:32;11.50;;;10.77;;
37937;SDS011;23763;48.130;11.602;2022-07-23T00:14:58;11.23;;;10.43;;
37937;SDS011;23763;48.130;11.602;2022-07-23T00:17:24;12.27;;;11.52;;
37937;SDS011;23763;48.130;11.602;2022-07-23T00:19:50;11.82;;;11.07;;
37937;SDS011;23763;48.130;11.602;2022-07-23T00:22:15;11.80;;;10.88;;
37937;SDS011;23763;48.130;11.602;2022-07-23T00:24:41;11.10;;;10.27;;
37937;SDS011;23763;48.130;11.602;2022-07-23T00:27:07;12.18;;;11.32;;
37937;SDS011;23763;48.130;11.602;2022-07-23T00:29:32;11.20;;;10.43;;
37937;SDS011;23763;48.130;11.602;2022-07-23T00:31:58;11.65;;;10.77;;
37937;SDS011;23763;48.130;11.602;2022-07-23T00:34:24;11.82;;;10.93;;
37937;SDS011;23763;48.130;11.602;2022-07-23T00:36:49;11.65;;;10.93;;
37937;SDS011;23763;48.130;11.602;2022-07-23T00:39:15;12.25;;;11.38;;
37937;SDS011;23763;48.130;11.602;2022-07-23T00:41:41;11.90;;;11.15;;
37937;SDS011;23763;48.130;11.602;2022-07-23T00:44:14;11.82;;;11.13;;
37937;SDS011;23763;48.130;11.602;2022-07-23T00:46:48;12.27;;;11.43;;
37937;SDS011;23763;48.130;11.602;2022-07-23T00:49:22;12.70;;;11.60;;
37937;SDS011;23763;48.130;11.602;2022-07-23T00:51:50;11.75;;;10.98;;
37937;SDS011;23763;48.130;11.602;2022-07-23T00:54:17;12.18;;;11.38;;
37937;SDS011;23763;48.130;11.602;2022-07-23T00:56:43;11.90;;;10.98;;
37937;SDS011;23763;48.130;11.602;2022-07-23T00:59:10;12.15;;;11.27;;
37937;SDS011;23763;48.130;11.602;2022-07-23T01:01:36;12.13;;;11.23;;
37937;SDS011;23763;48.130;11.602;2022-07-23T01:04:03;12.38;;;11.57;;
37937;SDS011;23763;48.130;11.602;2022-07-23T01:06:29;11.98;;;11.18;;
37937;SDS011;23763;48.130;11.602;2022-07-23T01:08:59;12.50;;;11.70;;
37937;SDS011;23763;48.130;11.602;2022-07-23T01:11:25;11.30;;;10.57;;
37937;SDS011;23763;48.130;11.602;2022-07-23T01:13:51;12.07;;;11.18;;
37937;SDS011;23763;48.130;11.602;2022-07-23T01:16:16;12.48;;;11.60;;
37937;SDS011;23763;48.130;11.602;2022-07-23T01:18:42;12.32;;;11.52;;
37937;SDS011;23763;48.130;11.602;2022-07-23T01:21:08;13.20;;;12.40;;
37937;SDS011;23763;48.130;11.602;2022-07-23T01:23:38;14.18;;;12.80;;
37937;SDS011;23763;48.130;11.602;2022-07-23T01:26:03;13.13;;;12.13;;
37937;SDS011;23763;48.130;11.602;2022-07-23T01:28:29;24.27;;;12.68;;
37937;SDS011;23763;48.130;11.602;2022-07-23T01:30:55;13.20;;;11.90;;
37937;SDS011;23763;48.130;11.602;2022-07-23T01:33:21;16.98;;;12.27;;
37937;SDS011;23763;48.130;11.602;2022-07-23T01:35:46;14.07;;;11.70;;
37937;SDS011;23763;48.130;11.602;2022-07-23T01:38:12;13.68;;;11.50;;
37937;SDS011;23763;48.130;11.602;2022-07-23T01:40:38;14.30;;;10.55;;
37937;SDS011;23763;48.130;11.602;2022-07-23T01:43:04;10.25;;;9.30;;
37937;SDS011;23763;48.130;11.602;2022-07-23T01:45:30;10.20;;;8.95;;
37937;SDS011;23763;48.130;11.602;2022-07-23T01:47:55;9.43;;;8.75;;
37937;SDS011;23763;48.130;11.602;2022-07-23T01:50:21;10.40;;;9.60;;
37937;SDS011;23763;48.130;11.602;2022-07-23T01:52:47;9.82;;;9.18;;
37937;SDS011;23763;48.130;11.602;2022-07-23T01:55:12;10.10;;;9.50;;
37937;SDS011;23763;48.130;11.602;2022-07-23T01:57:38;10.65;;;9.75;;
37937;SDS011;23763;48.130;11.602;2022-07-23T02:00:04;10.65;;;9.80;;
37937;SDS011;23763;48.130;11.602;2022-07-23T02:02:30;10.30;;;9.48;;
37937;SDS011;23763;48.130;11.602;2022-07-23T02:04:56;10.98;;;10.07;;
37937;SDS011;23763;48.130;11.602;2022-07-23T02:07:22;10.18;;;9.50;;
37937;SDS011;23763;48.130;11.602;2022-07-23T02:09:47;12.07;;;11.02;;
37937;SDS011;23763;48.130;11.602;2022-07-23T02:12:13;10.73;;;9.93;;
37937;SDS011;23763;48.130;11.602;2022-07-23T02:14:39;10.73;;;10.00;;
37937;SDS011;23763;48.130;11.602;2022-07-23T02:17:04;10.82;;;9.98;;
37937;SDS011;23763;48.130;11.602;2022-07-23T02:19:30;10.90;;;10.20;;
37937;SDS011;23763;48.130;11.602;2022-07-23T02:21:56;10.23;;;9.43;;
37937;SDS011;23763;48.130;11.602;2022-07-23T02:24:21;9.75;;;9.15;;
37937;SDS011;23763;48.130;11.602;2022-07-23T02:26:47;9.48;;;8.77;;
37937;SDS011;23763;48.130;11.602;2022-07-23T02:29:13;9.95;;;9.32;;
37937;SDS011;23763;48.130;11.602;2022-07-23T02:31:39;9.20;;;8.40;;
37937;SDS011;23763;48.130;11.602;2022-07-23T02:34:05;8.60;;;8.00;;
37937;SDS011;23763;48.130;11.602;2022-07-23T02:36:30;8.73;;;8.18;;
37937;SDS011;23763;48.130;11.602;2022-07-23T02:38:56;9.50;;;8.90;;
37937;SDS011;23763;48.130;11.602;2022-07-23T02:41:22;8.35;;;7.93;;
37937;SDS011;23763;48.130;11.602;2022-07-23T02:43:48;8.45;;;7.93;;
37937;SDS011;23763;48.130;11.602;2022-07-23T02:46:14;8.23;;;7.72;;
37937;SDS011;23763;48.130;11.602;2022-07-23T02:48:40;8.13;;;7.63;;
37937;SDS011;23763;48.130;11.602;2022-07-23T02:51:05;8.25;;;7.65;;
37937;SDS011;23763;48.130;11.602;2022-07-23T02:53:31;7.85;;;7.30;;
37937;SDS011;23763;48.130;11.602;2022-07-23T02:55:57;7.95;;;7.45;;
37937;SDS011;23763;48.130;11.602;2022-07-23T02:58:22;7.88;;;7.45;;
37937;SDS011;23763;48.130;11.602;2022-07-23T03:00:50;8.73;;;8.13;;
37937;SDS011;23763;48.130;11.602;2022-07-23T03:03:15;9.65;;;8.85;;
37937;SDS011;23763;48.130;11.602;2022-07-23T03:05:41;9.50;;;8.80;;
37937;SDS011;23763;48.130;11.602;2022-07-23T03:08:07;9.10;;;8.45;;
37937;SDS011;23763;48.130;11.602;2022-07-23T03:10:32;9.40;;;8.65;;
37937;SDS011;23763;48.130;11.602;2022-07-23T03:12:58;8.75;;;8.13;;
37937;SDS011;23763;48.130;11.602;2022-07-23T03:15:24;8.75;;;8.10;;
37937;SDS011;23763;48.130;11.602;2022-07-23T03:17:49;9.00;;;8.50;;
37937;SDS011;23763;48.130;11.602;2022-07-23T03:20:15;8.95;;;8.38;;
37937;SDS011;23763;48.130;11.602;2022-07-23T03:22:41;8.77;;;8.23;;
37937;SDS011;23763;48.130;11.602;2022-07-23T03:25:07;9.43;;;8.93;;
37937;SDS011;23763;48.130;11.602;2022-07-23T03:27:33;8.95;;;8.25;;
37937;SDS011;23763;48.130;11.602;2022-07-23T03:29:59;9.82;;;9.20;;
37937;SDS011;23763;48.130;11.602;2022-07-23T03:32:25;9.25;;;8.70;;
37937;SDS011;23763;48.130;11.602;2022-07-23T03:34:51;9.10;;;8.60;;
37937;SDS011;23763;48.130;11.602;2022-07-23T03:37:17;9.25;;;8.75;;
37937;SDS011;23763;48.130;11.602;2022-07-23T03:39:43;9.55;;;8.95;;
37937;SDS011;23763;48.130;11.602;2022-07-23T03:42:09;9.52;;;8.82;;
37937;SDS011;23763;48.130;11.602;2022-07-23T03:44:35;9.55;;;8.63;;
37937;SDS011;23763;48.130;11.602;2022-07-23T03:47:02;9.65;;;9.05;;
37937;SDS011;23763;48.130;11.602;2022-07-23T03:49:29;9.95;;;9.35;;
37937;SDS011;23763;48.130;11.602;2022-07-23T03:51:55;9.60;;;9.02;;
37937;SDS011;23763;48.130;11.602;2022-07-23T03:54:20;9.77;;;9.18;;
37937;SDS011;23763;48.130;11.602;2022-07-23T03:56:46;11.05;;;10.35;;
37937;SDS011;23763;48.130;11.602;2022-07-23T03:59:12;9.70;;;9.10;;
37937;SDS011;23763;48.130;11.602;2022-07-23T04:01:38;9.77;;;8.98;;
37937;SDS011;23763;48.130;11.602;2022-07-23T04:04:03;10.02;;;9.40;;
37937;SDS011;23763;48.130;11.602;2022-07-23T04:06:29;9.50;;;9.00;;
37937;SDS011;23763;48.130;11.602;2022-07-23T04:08:55;9.15;;;8.60;;
37937;SDS011;23763;48.130;11.602;2022-07-23T04:11:21;9.80;;;9.20;;
37937;SDS011;23763;48.130;11.602;2022-07-23T04:13:47;10.38;;;9.68;;
37937;SDS011;23763;48.130;11.602;2022-07-23T04:16:12;9.95;;;9.35;;
37937;SDS011;23763;48.130;11.602;2022-07-23T04:18:38;9.48;;;8.75;;
37937;SDS011;23763;48.130;11.602;2022-07-23T04:21:04;10.00;;;9.40;;
37937;SDS011;23763;48.130;11.602;2022-07-23T04:23:29;9.70;;;8.95;;
37937;SDS011;23763;48.130;11.602;2022-07-23T04:25:55;9.52;;;8.93;;
37937;SDS011;23763;48.130;11.602;2022-07-23T04:28:21;11.13;;;10.18;;
37937;SDS011;23763;48.130;11.602;2022-07-23T04:30:46;9.30;;;8.80;;
37937;SDS011;23763;48.130;11.602;2022-07-23T04:33:12;9.45;;;8.85;;
37937;SDS011;23763;48.130;11.602;2022-07-23T04:35:38;9.18;;;8.68;;
37937;SDS011;23763;48.130;11.602;2022-07-23T04:38:04;10.07;;;9.27;;
37937;SDS011;23763;48.130;11.602;2022-07-23T04:40:30;9.85;;;9.13;;
37937;SDS011;23763;48.130;11.602;2022-07-23T04:42:56;10.18;;;9.32;;
37937;SDS011;23763;48.130;11.602;2022-07-23T04:45:22;10.60;;;9.90;;
37937;SDS011;23763;48.130;11.602;2022-07-23T04:47:50;9.85;;;9.25;;
37937;SDS011;23763;48.130;11.602;2022-07-23T04:50:16;10.40;;;9.50;;
37937;SDS011;23763;48.130;11.602;2022-07-23T04:52:46;9.75;;;9.13;;
37937;SDS011;23763;48.130;11.602;2022-07-23T04:55:12;9.52;;;9.02;;
37937;SDS011;23763;48.130;11.602;2022-07-23T04:57:38;9.30;;;8.80;;
37937;SDS011;23763;48.130;11.602;2022-07-23T05:00:03;10.15;;;9.45;;
37937;SDS011;23763;48.130;11.602;2022-07-23T05:02:30;10.63;;;9.93;;
37937;SDS011;23763;48.130;11.602;2022-07-23T05:04:55;10.77;;;9.90;;
37937;SDS011;23763;48.130;11.602;2022-07-23T05:07:21;11.30;;;10.43;;
37937;SDS011;23763;48.130;11.602;2022-07-23T05:09:47;9.57;;;8.98;;
37937;SDS011;23763;48.130;11.602;2022-07-23T05:12:12;10.32;;;9.52;;
37937;SDS011;23763;48.130;11.602;2022-07-23T05:14:38;10.68;;;9.98;;
37937;SDS011;23763;48.130;11.602;2022-07-23T05:17:05;10.98;;;10.13;;
37937;SDS011;23763;48.130;11.602;2022-07-23T05:19:33;10.93;;;10.30;;
37937;SDS011;23763;48.130;11.602;2022-07-23T05:21:59;10.18;;;9.57;;
37937;SDS011;23763;48.130;11.602;2022-07-23T05:24:25;10.73;;;9.75;;
37937;SDS011;23763;48.130;11.602;2022-07-23T05:26:50;10.25;;;9.60;;
37937;SDS011;23763;48.130;11.602;2022-07-23T05:29:16;10.43;;;9.52;;
37937;SDS011;23763;48.130;11.602;2022-07-23T05:31:42;10.30;;;9.50;;
37937;SDS011;23763;48.130;11.602;2022-07-23T05:34:08;10.73;;;10.13;;
37937;SDS011;23763;48.130;11.602;2022-07-23T05:36:33;11.18;;;10.48;;
37937;SDS011;23763;48.130;11.602;2022-07-23T05:38:59;10.57;;;9.77;;
37937;SDS011;23763;48.130;11.602;2022-07-23T05:41:25;10.88;;;10.02;;
37937;SDS011;23763;48.130;11.602;2022-07-23T05:43:51;10.70;;;10.00;;
37937;SDS011;23763;48.130;11.602;2022-07-23T05:46:16;9.95;;;9.25;;
37937;SDS011;23763;48.130;11.602;2022-07-23T05:48:42;10.55;;;9.80;;
37937;SDS011;23763;48.130;11.602;2022-07-23T05:51:08;11.57;;;10.57;;
37937;SDS011;23763;48.130;11.602;2022-07-23T05:53:34;11.07;;;10.38;;
37937;SDS011;23763;48.130;11.602;2022-07-23T05:56:00;11.30;;;10.30;;
37937;SDS011;23763;48.130;11.602;2022-07-23T05:58:26;11.23;;;10.32;;
37937;SDS011;23763;48.130;11.602;2022-07-23T06:00:52;11.80;;;10.93;;
37937;SDS011;23763;48.130;11.602;2022-07-23T06:03:18;11.60;;;10.73;;
37937;SDS011;23763;48.130;11.602;2022-07-23T06:05:44;11.40;;;10.40;;
37937;SDS011;23763;48.130;11.602;2022-07-23T06:08:10;11.10;;;10.35;;
37937;SDS011;23763;48.130;11.602;2022-07-23T06:10:36;11.00;;;10.30;;
37937;SDS011;23763;48.130;11.602;2022-07-23T06:13:02;12.10;;;11.13;;
37937;SDS011;23763;48.130;11.602;2022-07-23T06:15:28;11.45;;;10.65;;
37937;SDS011;23763;48.130;11.602;2022-07-23T06:17:55;11.35;;;10.55;;
37937;SDS011;23763;48.130;11.602;2022-07-23T06:20:21;12.40;;;11.40;;
37937;SDS011;23763;48.130;11.602;2022-07-23T06:22:46;11.30;;;10.60;;
37937;SDS011;23763;48.130;11.602;2022-07-23T06:25:12;11.30;;;10.57;;
37937;SDS011;23763;48.130;11.602;2022-07-23T06:27:38;11.95;;;11.10;;
37937;SDS011;23763;48.130;11.602;2022-07-23T06:30:04;11.20;;;10.50;;
37937;SDS011;23763;48.130;11.602;2022-07-23T06:32:30;11.35;;;10.65;;
37937;SDS011;23763;48.130;11.602;2022-07-23T06:34:56;11.73;;;10.80;;
37937;SDS011;23763;48.130;11.602;2022-07-23T06:37:22;11.48;;;10.55;;
37937;SDS011;23763;48.130;11.602;2022-07-23T06:39:47;11.60;;;10.80;;
37937;SDS011;23763;48.130;11.602;2022-07-23T06:42:13;11.35;;;10.50;;
37937;SDS011;23763;48.130;11.602;2022-07-23T06:44:39;11.15;;;10.25;;
37937;SDS011;23763;48.130;11.602;2022-07-23T06:47:05;11.30;;;10.50;;
37937;SDS011;23763;48.130;11.602;2022-07-23T06:49:31;12.07;;;11.23;;
37937;SDS011;23763;48.130;11.602;2022-07-23T06:51:57;11.60;;;10.70;;
37937;SDS011;23763;48.130;11.602;2022-07-23T06:54:22;11.40;;;10.40;;
37937;SDS011;23763;48.130;11.602;2022-07-23T06:56:48;11.60;;;10.80;;
37937;SDS011;23763;48.130;11.602;2022-07-23T06:59:14;11.85;;;10.95;;
37937;SDS011;23763;48.130;11.602;2022-07-23T07:01:39;11.48;;;10.68;;
37937;SDS011;23763;48.130;11.602;2022-07-23T07:04:05;11.30;;;10.45;;
37937;SDS011;23763;48.130;11.602;2022-07-23T07:06:31;10.88;;;10.10;;
37937;SDS011;23763;48.130;11.602;2022-07-23T07:08:57;11.25;;;10.48;;
37937;SDS011;23763;48.130;11.602;2022-07-23T07:11:22;11.40;;;10.68;;
37937;SDS011;23763;48.130;11.602;2022-07-23T07:13:50;11.23;;;10.45;;
37937;SDS011;23763;48.130;11.602;2022-07-23T07:16:16;11.88;;;11.18;;
37937;SDS011;23763;48.130;11.602;2022-07-23T07:18:42;11.35;;;10.70;;
37937;SDS011;23763;48.130;11.602;2022-07-23T07:21:08;11.68;;;10.82;;
37937;SDS011;23763;48.130;11.602;2022-07-23T07:23:34;11.13;;;10.40;;
37937;SDS011;23763;48.130;11.602;2022-07-23T07:25:59;11.77;;;10.98;;
37937;SDS011;23763;48.130;11.602;2022-07-23T07:28:25;11.48;;;10.73;;
37937;SDS011;23763;48.130;11.602;2022-07-23T07:30:51;11.40;;;10.48;;
37937;SDS011;23763;48.130;11.602;2022-07-23T07:33:16;11.77;;;11.05;;
37937;SDS011;23763;48.130;11.602;2022-07-23T07:35:42;11.77;;;11.02;;
37937;SDS011;23763;48.130;11.602;2022-07-23T07:38:08;11.30;;;10.60;;
37937;SDS011;23763;48.130;11.602;2022-07-23T07:40:34;12.05;;;10.93;;
37937;SDS011;23763;48.130;11.602;2022-07-23T07:42:59;12.00;;;11.00;;
37937;SDS011;23763;48.130;11.602;2022-07-23T07:45:26;12.18;;;11.32;;
37937;SDS011;23763;48.130;11.602;2022-07-23T07:47:52;11.85;;;11.00;;
37937;SDS011;23763;48.130;11.602;2022-07-23T07:50:18;12.05;;;11.05;;
37937;SDS011;23763;48.130;11.602;2022-07-23T07:52:45;13.10;;;11.88;;
37937;SDS011;23763;48.130;11.602;2022-07-23T07:55:11;11.30;;;10.50;;
37937;SDS011;23763;48.130;11.602;2022-07-23T07:57:37;12.68;;;11.63;;
37937;SDS011;23763;48.130;11.602;2022-07-23T08:00:04;12.90;;;11.75;;
37937;SDS011;23763;48.130;11.602;2022-07-23T08:02:39;12.68;;;11.68;;
37937;SDS011;23763;48.130;11.602;2022-07-23T08:05:09;12.43;;;11.50;;
37937;SDS011;23763;48.130;11.602;2022-07-23T08:07:35;11.88;;;11.13;;
37937;SDS011;23763;48.130;11.602;2022-07-23T08:10:02;12.18;;;11.27;;
37937;SDS011;23763;48.130;11.602;2022-07-23T08:12:36;12.13;;;11.07;;
37937;SDS011;23763;48.130;11.602;2022-07-23T08:15:13;12.52;;;11.52;;
37937;SDS011;23763;48.130;11.602;2022-07-23T08:17:41;12.13;;;11.23;;
37937;SDS011;23763;48.130;11.602;2022-07-23T08:20:09;12.57;;;11.57;;
37937;SDS011;23763;48.130;11.602;2022-07-23T08:25:22;14.30;;;13.20;;
37937;SDS011;23763;48.130;11.602;2022-07-23T08:27:52;12.52;;;11.40;;
37937;SDS011;23763;48.130;11.602;2022-07-23T08:30:19;11.85;;;10.95;;
37937;SDS011;23763;48.130;11.602;2022-07-23T08:32:55;11.63;;;10.75;;
37937;SDS011;23763;48.130;11.602;2022-07-23T08:35:32;12.48;;;11.38;;
37937;SDS011;23763;48.130;11.602;2022-07-23T08:38:01;12.40;;;11.40;;
37937;SDS011;23763;48.130;11.602;2022-07-23T08:40:29;11.75;;;10.95;;
37937;SDS011;23763;48.130;11.602;2022-07-23T08:42:56;11.70;;;10.95;;
37937;SDS011;23763;48.130;11.602;2022-07-23T08:45:23;11.95;;;11.13;;
37937;SDS011;23763;48.130;11.602;2022-07-23T08:47:52;11.50;;;10.80;;
37937;SDS011;23763;48.130;11.602;2022-07-23T08:50:19;10.98;;;10.27;;
37937;SDS011;23763;48.130;11.602;2022-07-23T08:52:46;12.05;;;11.15;;
37937;SDS011;23763;48.130;11.602;2022-07-23T08:55:13;11.63;;;10.82;;
37937;SDS011;23763;48.130;11.602;2022-07-23T08:57:41;11.43;;;10.73;;
37937;SDS011;23763;48.130;11.602;2022-07-23T09:00:07;12.68;;;11.77;;
37937;SDS011;23763;48.130;11.602;2022-07-23T09:02:40;12.30;;;11.40;;
37937;SDS011;23763;48.130;11.602;2022-07-23T09:05:08;12.00;;;11.20;;
37937;SDS011;23763;48.130;11.602;2022-07-23T09:07:36;11.75;;;10.70;;
37937;SDS011;23763;48.130;11.602;2022-07-23T09:10:06;26.58;;;18.92;;
37937;SDS011;23763;48.130;11.602;2022-07-23T09:12:34;14.90;;;13.57;;
37937;SDS011;23763;48.130;11.602;2022-07-23T09:15:06;12.90;;;11.98;;
37937;SDS011;23763;48.130;11.602;2022-07-23T09:17:37;11.45;;;10.75;;
37937;SDS011;23763;48.130;11.602;2022-07-23T09:20:08;12.75;;;11.85;;
37937;SDS011;23763;48.130;11.602;2022-07-23T09:22:35;11.50;;;10.70;;
37937;SDS011;23763;48.130;11.602;2022-07-23T09:30:21;11.05;;;10.25;;
37937;SDS011;23763;48.130;11.602;2022-07-23T09:33:04;10.85;;;10.20;;
37937;SDS011;23763;48.130;11.602;2022-07-23T09:38:12;11.65;;;10.85;;
37937;SDS011;23763;48.130;11.602;2022-07-23T09:40:38;11.35;;;10.65;;
37937;SDS011;23763;48.130;11.602;2022-07-23T09:43:04;11.75;;;10.85;;
37937;SDS011;23763;48.130;11.602;2022-07-23T09:45:30;11.65;;;10.75;;
37937;SDS011;23763;48.130;11.602;2022-07-23T09:48:12;10.90;;;10.20;;
37937;SDS011;23763;48.130;11.602;2022-07-23T09:50:40;10.70;;;10.10;;
37937;SDS011;23763;48.130;11.602;2022-07-23T09:53:06;12.65;;;11.85;;
37937;SDS011;23763;48.130;11.602;2022-07-23T09:55:33;12.13;;;11.32;;
37937;SDS011;23763;48.130;11.602;2022-07-23T09:58:07;11.75;;;10.95;;
37937;SDS011;23763;48.130;11.602;2022-07-23T10:00:39;11.18;;;10.45;;
37937;SDS011;23763;48.130;11.602;2022-07-23T10:03:05;10.90;;;10.15;;
37937;SDS011;23763;48.130;11.602;2022-07-23T10:05:31;10.68;;;9.98;;
37937;SDS011;23763;48.130;11.602;2022-07-23T10:08:00;10.85;;;9.90;;
37937;SDS011;23763;48.130;11.602;2022-07-23T10:10:27;10.23;;;9.48;;
37937;SDS011;23763;48.130;11.602;2022-07-23T10:12:54;10.48;;;9.88;;
37937;SDS011;23763;48.130;11.602;2022-07-23T10:15:40;12.40;;;11.48;;
37937;SDS011;23763;48.130;11.602;2022-07-23T10:18:07;10.45;;;9.70;;
37937;SDS011;23763;48.130;11.602;2022-07-23T10:20:37;11.23;;;10.43;;
37937;SDS011;23763;48.130;11.602;2022-07-23T10:26:05;10.63;;;9.82;;
37937;SDS011;23763;48.130;11.602;2022-07-23T10:29:24;10.77;;;9.98;;
37937;SDS011;23763;48.130;11.602;2022-07-23T10:32:16;10.45;;;9.75;;
37937;SDS011;23763;48.130;11.602;2022-07-23T10:35:09;11.02;;;10.32;;
37937;SDS011;23763;48.130;11.602;2022-07-23T10:37:46;11.40;;;10.50;;
37937;SDS011;23763;48.130;11.602;2022-07-23T10:40:19;11.73;;;10.68;;
37937;SDS011;23763;48.130;11.602;2022-07-23T10:42:48;10.70;;;10.00;;
37937;SDS011;23763;48.130;11.602;2022-07-23T10:47:50;11.40;;;10.48;;
37937;SDS011;23763;48.130;11.602;2022-07-23T10:58:03;10.10;;;9.55;;
37937;SDS011;23763;48.130;11.602;2022-07-23T11:00:31;10.23;;;9.43;;
37937;SDS011;23763;48.130;11.602;2022-07-23T11:03:02;10.65;;;9.95;;
37937;SDS011;23763;48.130;11.602;2022-07-23T11:10:43;10.25;;;9.63;;
37937;SDS011;23763;48.130;11.602;2022-07-23T11:26:43;11.00;;;10.23;;
37937;SDS011;23763;48.130;11.602;2022-07-23T11:32:06;10.77;;;9.93;;
37937;SDS011;23763;48.130;11.602;2022-07-23T11:34:43;10.23;;;9.50;;
37937;SDS011;23763;48.130;11.602;2022-07-23T11:37:27;11.02;;;10.32;;
37937;SDS011;23763;48.130;11.602;2022-07-23T11:40:13;10.52;;;9.82;;
37937;SDS011;23763;48.130;11.602;2022-07-23T11:42:54;10.48;;;9.52;;
37937;SDS011;23763;48.130;11.602;2022-07-23T11:45:22;11.73;;;10.93;;
37937;SDS011;23763;48.130;11.602;2022-07-23T11:47:48;10.68;;;9.75;;
37937;SDS011;23763;48.130;11.602;2022-07-23T11:50:14;10.68;;;9.77;;
37937;SDS011;23763;48.130;11.602;2022-07-23T11:52:40;11.73;;;10.82;;
37937;SDS011;23763;48.130;11.602;2022-07-23T11:55:07;11.43;;;10.50;;
37937;SDS011;23763;48.130;11.602;2022-07-23T11:57:35;11.90;;;11.10;;
37937;SDS011;23763;48.130;11.602;2022-07-23T12:02:37;11.57;;;10.63;;
37937;SDS011;23763;48.130;11.602;2022-07-23T12:05:04;12.57;;;11.68;;
37937;SDS011;23763;48.130;11.602;2022-07-23T12:12:50;11.93;;;11.05;;
37937;SDS011;23763;48.130;11.602;2022-07-23T12:15:18;11.68;;;10.77;;
37937;SDS011;23763;48.130;11.602;2022-07-23T12:17:48;11.27;;;10.48;;
37937;SDS011;23763;48.130;11.602;2022-07-23T12:20:15;12.80;;;11.90;;
37937;SDS011;23763;48.130;11.602;2022-07-23T12:22:46;11.60;;;10.80;;
37937;SDS011;23763;48.130;11.602;2022-07-23T12:27:45;11.23;;;10.40;;
37937;SDS011;23763;48.130;11.602;2022-07-23T12:30:28;11.00;;;10.20;;
37937;SDS011;23763;48.130;11.602;2022-07-23T12:32:57;11.65;;;10.77;;
37937;SDS011;23763;48.130;11.602;2022-07-23T12:35:29;11.15;;;10.38;;
37937;SDS011;23763;48.130;11.602;2022-07-23T12:38:10;12.73;;;11.82;;
37937;SDS011;23763;48.130;11.602;2022-07-23T12:43:20;11.52;;;10.68;;
37937;SDS011;23763;48.130;11.602;2022-07-23T12:45:51;11.18;;;10.38;;
37937;SDS011;23763;48.130;11.602;2022-07-23T12:48:49;12.02;;;10.85;;
37937;SDS011;23763;48.130;11.602;2022-07-23T12:51:27;10.60;;;10.00;;
37937;SDS011;23763;48.130;11.602;2022-07-23T12:54:09;11.85;;;11.05;;
37937;SDS011;23763;48.130;11.602;2022-07-23T12:56:36;10.52;;;9.82;;
37937;SDS011;23763;48.130;11.602;2022-07-23T12:59:05;11.98;;;10.98;;
37937;SDS011;23763;48.130;11.602;2022-07-23T13:01:39;11.57;;;10.88;;
37937;SDS011;23763;48.130;11.602;2022-07-23T13:04:09;12.75;;;11.90;;
37937;SDS011;23763;48.130;11.602;2022-07-23T13:06:40;12.10;;;11.30;;
37937;SDS011;23763;48.130;11.602;2022-07-23T13:09:12;12.27;;;11.38;;
37937;SDS011;23763;48.130;11.602;2022-07-23T13:11:42;11.35;;;10.55;;
37937;SDS011;23763;48.130;11.602;2022-07-23T13:14:10;10.90;;;10.20;;
37937;SDS011;23763;48.130;11.602;2022-07-23T13:16:37;11.35;;;10.48;;
37937;SDS011;23763;48.130;11.602;2022-07-23T13:19:04;11.55;;;10.63;;
37937;SDS011;23763;48.130;11.602;2022-07-23T13:21:31;11.05;;;10.23;;
37937;SDS011;23763;48.130;11.602;2022-07-23T13:23:57;10.90;;;10.20;;
37937;SDS011;23763;48.130;11.602;2022-07-23T13:26:24;11.50;;;10.68;;
37937;SDS011;23763;48.130;11.602;2022-07-23T13:28:50;11.50;;;10.70;;
37937;SDS011;23763;48.130;11.602;2022-07-23T13:31:16;11.90;;;11.13;;
37937;SDS011;23763;48.130;11.602;2022-07-23T13:33:42;11.77;;;10.90;;
37937;SDS011;23763;48.130;11.602;2022-07-23T13:36:08;11.95;;;11.15;;
37937;SDS011;23763;48.130;11.602;2022-07-23T13:38:34;10.80;;;10.20;;
37937;SDS011;23763;48.130;11.602;2022-07-23T13:41:02;11.63;;;10.73;;
37937;SDS011;23763;48.130;11.602;2022-07-23T13:43:28;12.00;;;11.10;;
37937;SDS011;23763;48.130;11.602;2022-07-23T13:45:54;12.75;;;11.70;;
37937;SDS011;23763;48.130;11.602;2022-07-23T13:48:20;11.73;;;10.75;;
37937;SDS011;23763;48.130;11.602;2022-07-23T13:50:47;12.48;;;11.55;;
37937;SDS011;23763;48.130;11.602;2022-07-23T13:53:15;11.52;;;10.68;;
37937;SDS011;23763;48.130;11.602;2022-07-23T13:55:43;12.18;;;11.27;;
37937;SDS011;23763;48.130;11.602;2022-07-23T13:58:10;11.40;;;10.48;;
37937;SDS011;23763;48.130;11.602;2022-07-23T14:00:37;11.65;;;10.85;;
37937;SDS011;23763;48.130;11.602;2022-07-23T14:03:06;11.90;;;11.20;;
37937;SDS011;23763;48.130;11.602;2022-07-23T14:05:32;12.30;;;11.50;;
37937;SDS011;23763;48.130;11.602;2022-07-23T14:07:57;12.32;;;11.45;;
37937;SDS011;23763;48.130;11.602;2022-07-23T14:10:23;11.70;;;10.93;;
37937;SDS011;23763;48.130;11.602;2022-07-23T14:12:50;12.52;;;11.55;;
37937;SDS011;23763;48.130;11.602;2022-07-23T14:15:18;11.68;;;10.98;;
37937;SDS011;23763;48.130;11.602;2022-07-23T14:17:45;12.05;;;11.18;;
37937;SDS011;23763;48.130;11.602;2022-07-23T14:20:12;12.00;;;11.13;;
37937;SDS011;23763;48.130;11.602;2022-07-23T14:22:39;12.23;;;11.35;;
37937;SDS011;23763;48.130;11.602;2022-07-23T14:25:06;11.63;;;10.93;;
37937;SDS011;23763;48.130;11.602;2022-07-23T14:27:36;11.52;;;10.73;;
37937;SDS011;23763;48.130;11.602;2022-07-23T14:30:03;12.48;;;11.48;;
37937;SDS011;23763;48.130;11.602;2022-07-23T14:32:33;13.02;;;12.05;;
37937;SDS011;23763;48.130;11.602;2022-07-23T14:34:59;13.52;;;12.55;;
37937;SDS011;23763;48.130;11.602;2022-07-23T14:37:25;11.45;;;10.55;;
37937;SDS011;23763;48.130;11.602;2022-07-23T14:39:51;11.50;;;10.60;;
37937;SDS011;23763;48.130;11.602;2022-07-23T14:42:18;11.50;;;10.73;;
37937;SDS011;23763;48.130;11.602;2022-07-23T14:44:44;12.20;;;11.30;;
37937;SDS011;23763;48.130;11.602;2022-07-23T14:47:10;11.63;;;10.82;;
37937;SDS011;23763;48.130;11.602;2022-07-23T14:49:36;12.02;;;11.23;;
37937;SDS011;23763;48.130;11.602;2022-07-23T14:52:03;11.93;;;11.02;;
37937;SDS011;23763;48.130;11.602;2022-07-23T14:54:29;12.65;;;11.63;;
37937;SDS011;23763;48.130;11.602;2022-07-23T14:56:56;12.55;;;11.68;;
37937;SDS011;23763;48.130;11.602;2022-07-23T14:59:26;11.73;;;10.68;;
37937;SDS011;23763;48.130;11.602;2022-07-23T15:01:55;11.60;;;10.70;;
37937;SDS011;23763;48.130;11.602;2022-07-23T15:04:21;12.85;;;11.98;;
37937;SDS011;23763;48.130;11.602;2022-07-23T15:06:47;14.52;;;13.23;;
37937;SDS011;23763;48.130;11.602;2022-07-23T15:09:13;12.27;;;11.25;;
37937;SDS011;23763;48.130;11.602;2022-07-23T15:11:39;12.70;;;11.80;;
37937;SDS011;23763;48.130;11.602;2022-07-23T15:14:07;11.75;;;10.95;;
37937;SDS011;23763;48.130;11.602;2022-07-23T15:16:34;12.15;;;11.35;;